createdAt,value
2023-09-23T00:01:27.555Z,2.15
2023-09-23T00:03:54.120Z,1.95
2023-09-23T00:06:20.614Z,1.58
2023-09-23T00:08:47.236Z,2.10
2023-09-23T00:11:14.183Z,1.70
2023-09-23T00:13:40.642Z,2.33
2023-09-23T00:16:07.113Z,1.60
2023-09-23T00:18:33.612Z,1.42
2023-09-23T00:21:00.084Z,2.13
2023-09-23T00:23:27.099Z,3.22
2023-09-23T00:25:53.506Z,1.48
2023-09-23T00:28:19.886Z,1.00
2023-09-23T00:30:46.533Z,1.77
2023-09-23T00:33:13.166Z,1.75
2023-09-23T00:35:39.915Z,1.30
2023-09-23T00:38:06.309Z,1.40
2023-09-23T00:40:33.057Z,1.88
2023-09-23T00:42:59.526Z,1.25
2023-09-23T00:45:25.985Z,1.50
2023-09-23T00:47:52.628Z,1.40
2023-09-23T00:50:19.245Z,1.88
2023-09-23T00:52:45.774Z,1.20
2023-09-23T00:55:12.312Z,1.60
2023-09-23T00:57:38.756Z,1.52
2023-09-23T01:00:05.205Z,1.48
2023-09-23T01:02:31.712Z,1.38
2023-09-23T01:04:58.271Z,1.25
2023-09-23T01:07:24.831Z,1.10
2023-09-23T01:09:51.284Z,1.13
2023-09-23T01:12:17.772Z,1.50
2023-09-23T01:14:44.435Z,1.52
2023-09-23T01:17:11.554Z,2.13
2023-09-23T01:19:38.392Z,1.67
2023-09-23T01:22:05.047Z,1.33
2023-09-23T01:24:31.911Z,1.50
2023-09-23T01:26:58.879Z,1.50
2023-09-23T01:29:25.377Z,1.77
2023-09-23T01:31:51.964Z,1.42
2023-09-23T01:34:18.452Z,1.40
2023-09-23T01:36:44.783Z,1.00
2023-09-23T01:39:11.239Z,2.10
2023-09-23T01:41:37.721Z,1.63
2023-09-23T01:44:04.272Z,0.98
2023-09-23T01:46:30.951Z,1.23
2023-09-23T01:48:57.488Z,1.27
2023-09-23T01:51:24.096Z,1.35
2023-09-23T01:53:50.587Z,2.38
2023-09-23T01:56:16.926Z,1.42
2023-09-23T01:58:43.347Z,1.63
2023-09-23T02:01:10.079Z,1.35
2023-09-23T02:03:36.630Z,1.50
2023-09-23T02:06:03.274Z,1.67
2023-09-23T02:08:29.587Z,1.98
2023-09-23T02:10:56.242Z,1.42
2023-09-23T02:13:22.927Z,1.27
2023-09-23T02:15:49.408Z,1.20
2023-09-23T02:18:15.914Z,1.33
2023-09-23T02:20:42.360Z,1.45
2023-09-23T02:23:08.781Z,1.55
2023-09-23T02:25:35.414Z,1.33
2023-09-23T02:28:01.921Z,1.08
2023-09-23T02:30:28.260Z,1.30
2023-09-23T02:32:54.813Z,1.00
2023-09-23T02:35:21.725Z,1.48
2023-09-23T02:37:48.399Z,1.00
2023-09-23T02:40:15.109Z,0.90
2023-09-23T02:42:41.679Z,1.35
2023-09-23T02:45:08.275Z,1.10
2023-09-23T02:47:35.085Z,1.30
2023-09-23T02:50:01.939Z,0.88
2023-09-23T02:52:28.570Z,1.42
2023-09-23T02:54:55.260Z,1.38
2023-09-23T02:57:21.804Z,1.45
2023-09-23T02:59:48.341Z,1.00
2023-09-23T03:02:15.305Z,1.15
2023-09-23T03:04:42.009Z,1.92
2023-09-23T03:07:08.678Z,0.93
2023-09-23T03:09:35.541Z,1.05
2023-09-23T03:12:02.169Z,0.98
2023-09-23T03:14:28.675Z,1.17
2023-09-23T03:16:55.101Z,1.20
2023-09-23T03:19:21.499Z,1.00
2023-09-23T03:21:47.970Z,1.13
2023-09-23T03:24:14.550Z,1.05
2023-09-23T03:26:40.869Z,1.30
2023-09-23T03:29:07.185Z,0.93
2023-09-23T03:31:33.750Z,1.42
2023-09-23T03:34:00.191Z,0.70
2023-09-23T03:36:26.732Z,0.90
2023-09-23T03:38:53.199Z,1.05
2023-09-23T03:41:19.840Z,1.15
2023-09-23T03:43:46.296Z,0.80
2023-09-23T03:46:12.905Z,0.93
2023-09-23T03:48:39.231Z,0.80
2023-09-23T03:51:05.769Z,0.95
2023-09-23T03:53:32.328Z,0.63
2023-09-23T03:55:58.868Z,0.75
2023-09-23T03:58:25.289Z,0.70
2023-09-23T04:00:51.774Z,0.77
2023-09-23T04:03:18.428Z,1.02
2023-09-23T04:05:45.098Z,1.02
2023-09-23T04:08:11.775Z,0.80
2023-09-23T04:10:38.247Z,1.25
2023-09-23T04:13:04.548Z,0.70
2023-09-23T04:15:30.830Z,1.00
2023-09-23T04:17:57.519Z,0.68
2023-09-23T04:20:23.976Z,0.75
2023-09-23T04:22:50.673Z,0.82
2023-09-23T04:25:17.146Z,1.40
2023-09-23T04:27:43.471Z,1.15
2023-09-23T04:30:10.000Z,1.13
2023-09-23T04:32:36.412Z,1.10
2023-09-23T04:35:02.973Z,0.85
2023-09-23T04:37:29.713Z,1.10
2023-09-23T04:39:56.120Z,0.88
2023-09-23T04:42:22.987Z,0.77
2023-09-23T04:44:50.168Z,1.00
2023-09-23T04:47:16.591Z,1.02
2023-09-23T04:49:43.144Z,1.20
2023-09-23T04:52:09.903Z,0.70
2023-09-23T04:54:36.363Z,1.65
2023-09-23T04:57:02.860Z,1.25
2023-09-23T04:59:29.249Z,0.90
2023-09-23T05:01:55.779Z,1.40
2023-09-23T05:04:22.269Z,1.15
2023-09-23T05:06:48.899Z,0.90
2023-09-23T05:09:15.437Z,1.30
2023-09-23T05:11:42.037Z,1.23
2023-09-23T05:14:08.681Z,0.80
2023-09-23T05:16:35.279Z,1.85
2023-09-23T05:19:02.102Z,1.83
2023-09-23T05:21:28.722Z,2.03
2023-09-23T05:23:55.091Z,1.20
2023-09-23T05:26:21.404Z,0.98
2023-09-23T05:28:48.348Z,1.90
2023-09-23T05:31:15.037Z,0.90
2023-09-23T05:33:41.786Z,1.25
2023-09-23T05:36:08.358Z,1.13
2023-09-23T05:38:34.864Z,1.23
2023-09-23T05:41:01.460Z,1.67
2023-09-23T05:43:28.046Z,1.20
2023-09-23T05:45:54.498Z,2.05
2023-09-23T05:48:20.942Z,7.18
2023-09-23T05:50:47.369Z,8.95
2023-09-23T05:53:13.695Z,9.50
2023-09-23T05:55:39.987Z,9.70
2023-09-23T05:58:06.289Z,13.02
2023-09-23T06:00:32.744Z,14.25
2023-09-23T06:02:59.436Z,12.10
2023-09-23T06:05:28.534Z,10.20
2023-09-23T06:07:55.863Z,11.05
2023-09-23T06:10:22.467Z,8.73
2023-09-23T06:12:49.266Z,8.13
2023-09-23T06:15:16.038Z,7.30
2023-09-23T06:17:43.178Z,3.40
2023-09-23T06:20:09.974Z,3.72
2023-09-23T06:22:36.772Z,2.60
2023-09-23T06:25:03.501Z,2.08
2023-09-23T06:27:30.217Z,1.80
2023-09-23T06:29:57.156Z,1.33
2023-09-23T06:32:23.624Z,1.80
2023-09-23T06:34:50.105Z,1.77
2023-09-23T06:37:16.549Z,1.23
2023-09-23T06:39:43.207Z,2.15
2023-09-23T06:42:10.025Z,2.60
2023-09-23T06:44:36.851Z,3.72
2023-09-23T06:47:03.760Z,2.88
2023-09-23T06:49:30.272Z,2.95
2023-09-23T06:51:56.945Z,2.40
2023-09-23T06:54:23.861Z,2.35
2023-09-23T06:56:50.696Z,2.00
2023-09-23T06:59:17.646Z,2.38
2023-09-23T07:01:44.412Z,2.13
2023-09-23T07:04:11.195Z,1.48
2023-09-23T07:06:38.178Z,1.70
2023-09-23T07:09:04.749Z,1.50
2023-09-23T07:11:31.541Z,1.38
2023-09-23T07:13:58.312Z,1.55
2023-09-23T07:16:25.341Z,1.80
2023-09-23T07:18:52.081Z,1.55
2023-09-23T07:21:18.438Z,1.40
2023-09-23T07:23:45.133Z,1.63
2023-09-23T07:26:11.923Z,1.05
2023-09-23T07:28:38.313Z,1.33
2023-09-23T07:31:04.842Z,1.70
2023-09-23T07:33:31.578Z,1.20
2023-09-23T07:35:58.201Z,1.38
2023-09-23T07:38:24.559Z,1.13
2023-09-23T07:40:51.257Z,2.05
2023-09-23T07:43:17.647Z,1.50
2023-09-23T07:45:43.996Z,0.88
2023-09-23T07:48:10.403Z,1.00
2023-09-23T07:50:36.924Z,1.05
2023-09-23T07:53:03.388Z,1.55
2023-09-23T07:55:29.764Z,1.20
2023-09-23T07:57:56.070Z,1.38
2023-09-23T08:00:22.386Z,1.30
2023-09-23T08:02:48.909Z,1.30
2023-09-23T08:05:15.315Z,1.02
2023-09-23T08:07:41.858Z,1.05
2023-09-23T08:10:08.190Z,1.75
2023-09-23T08:12:34.494Z,1.98
2023-09-23T08:15:00.820Z,1.35
2023-09-23T08:17:27.757Z,1.52
2023-09-23T08:19:54.571Z,1.52
2023-09-23T08:22:21.388Z,1.00
2023-09-23T08:24:48.189Z,0.93
2023-09-23T08:27:14.948Z,1.15
2023-09-23T08:29:41.622Z,0.85
2023-09-23T08:32:08.461Z,1.00
2023-09-23T08:34:34.898Z,1.83
2023-09-23T08:37:01.419Z,1.20
2023-09-23T08:39:28.078Z,0.95
2023-09-23T08:41:54.788Z,1.85
2023-09-23T08:44:21.701Z,1.00
2023-09-23T08:46:48.482Z,0.98
2023-09-23T08:49:15.116Z,1.00
2023-09-23T08:51:41.679Z,1.08
2023-09-23T08:54:08.323Z,1.13
2023-09-23T08:56:34.813Z,0.70
2023-09-23T08:59:01.602Z,1.00
2023-09-23T09:01:28.689Z,1.33
2023-09-23T09:03:55.241Z,1.00
2023-09-23T09:06:22.090Z,1.10
2023-09-23T09:08:48.738Z,0.75
2023-09-23T09:11:15.572Z,1.00
2023-09-23T09:13:42.069Z,1.25
2023-09-23T09:16:08.444Z,1.13
2023-09-23T09:18:34.994Z,1.13
2023-09-23T09:21:01.766Z,0.65
2023-09-23T09:23:28.599Z,0.75
2023-09-23T09:25:55.578Z,1.30
2023-09-23T09:28:22.064Z,0.75
2023-09-23T09:30:48.380Z,0.70
2023-09-23T09:33:14.719Z,1.10
2023-09-23T09:35:41.327Z,1.17
2023-09-23T09:38:17.550Z,0.90
2023-09-23T09:40:44.913Z,0.60
2023-09-23T09:43:11.859Z,0.73
2023-09-23T09:45:38.685Z,0.98
2023-09-23T09:48:05.704Z,1.17
2023-09-23T09:50:35.049Z,1.02
2023-09-23T09:53:01.455Z,0.93
2023-09-23T09:55:27.750Z,1.17
2023-09-23T09:57:54.143Z,0.98
2023-09-23T10:00:20.491Z,1.10
2023-09-23T10:02:46.865Z,0.82
2023-09-23T10:05:13.268Z,1.20
2023-09-23T10:07:39.593Z,1.23
2023-09-23T10:10:06.381Z,1.05
2023-09-23T10:12:32.812Z,1.20
2023-09-23T10:14:59.150Z,0.75
2023-09-23T10:17:25.694Z,1.10
2023-09-23T10:19:52.205Z,0.60
2023-09-23T10:22:18.590Z,0.70
2023-09-23T10:24:44.942Z,1.10
2023-09-23T10:27:11.210Z,0.80
2023-09-23T10:29:37.873Z,0.80
2023-09-23T10:32:04.397Z,1.08
2023-09-23T10:34:36.875Z,0.80
2023-09-23T10:37:11.151Z,0.90
2023-09-23T10:39:38.047Z,0.75
2023-09-23T10:42:05.169Z,0.90
2023-09-23T10:44:32.328Z,0.82
2023-09-23T10:46:58.718Z,0.73
2023-09-23T10:49:25.049Z,0.85
2023-09-23T10:51:51.787Z,0.68
2023-09-23T10:54:18.494Z,0.93
2023-09-23T10:56:45.068Z,1.05
2023-09-23T10:59:11.773Z,1.08
2023-09-23T11:01:38.412Z,0.93
2023-09-23T11:04:04.884Z,0.52
2023-09-23T11:06:31.260Z,0.75
2023-09-23T11:08:57.866Z,0.80
2023-09-23T11:11:24.486Z,0.82
2023-09-23T11:13:51.410Z,0.88
2023-09-23T11:16:18.001Z,0.75
2023-09-23T11:18:44.465Z,1.15
2023-09-23T11:21:11.277Z,1.40
2023-09-23T11:23:37.901Z,0.95
2023-09-23T11:26:04.390Z,1.05
2023-09-23T11:28:30.776Z,0.93
2023-09-23T11:30:57.043Z,0.80
2023-09-23T11:33:23.439Z,1.00
2023-09-23T11:35:49.772Z,1.27
2023-09-23T11:38:16.118Z,0.95
2023-09-23T11:40:42.474Z,0.80
2023-09-23T11:43:08.885Z,1.13
2023-09-23T11:45:35.245Z,2.17
2023-09-23T11:48:01.697Z,17.17
2023-09-23T11:50:28.147Z,1.30
2023-09-23T11:52:54.485Z,1.35
2023-09-23T11:55:20.833Z,0.90
2023-09-23T11:57:47.110Z,1.02
2023-09-23T12:00:13.352Z,0.80
2023-09-23T12:02:39.694Z,0.90
2023-09-23T12:05:06.129Z,1.08
2023-09-23T12:07:32.569Z,0.93
2023-09-23T12:09:58.823Z,0.70
2023-09-23T12:12:25.654Z,0.80
2023-09-23T12:14:52.421Z,0.90
2023-09-23T12:17:19.232Z,1.20
2023-09-23T12:19:45.580Z,0.70
2023-09-23T12:22:11.833Z,1.17
2023-09-23T12:24:38.161Z,1.15
2023-09-23T12:27:04.487Z,1.30
2023-09-23T12:29:30.875Z,0.73
2023-09-23T12:31:57.288Z,1.10
2023-09-23T12:34:23.661Z,1.30
2023-09-23T12:36:49.969Z,0.80
2023-09-23T12:39:16.315Z,1.35
2023-09-23T12:41:42.636Z,0.98
2023-09-23T12:44:08.997Z,0.95
2023-09-23T12:46:35.342Z,1.00
2023-09-23T12:49:01.700Z,1.25
2023-09-23T12:51:28.075Z,1.70
2023-09-23T12:53:54.376Z,0.90
2023-09-23T12:56:21.076Z,1.27
2023-09-23T12:58:48.056Z,1.10
2023-09-23T13:01:14.885Z,0.68
2023-09-23T13:03:41.868Z,0.80
2023-09-23T13:06:08.679Z,1.05
2023-09-23T13:08:35.402Z,1.20
2023-09-23T13:11:02.101Z,1.08
2023-09-23T13:13:28.729Z,1.52
2023-09-23T13:15:55.097Z,1.17
2023-09-23T13:18:21.844Z,1.13
2023-09-23T13:20:48.552Z,1.05
2023-09-23T13:23:15.136Z,2.00
2023-09-23T13:25:42.051Z,1.02
2023-09-23T13:28:08.680Z,1.00
2023-09-23T13:30:35.098Z,0.90
2023-09-23T13:33:01.469Z,1.05
2023-09-23T13:35:28.036Z,0.80
2023-09-23T13:37:54.895Z,1.45
2023-09-23T13:40:21.610Z,1.85
2023-09-23T13:42:48.189Z,1.23
2023-09-23T13:45:14.895Z,1.02
2023-09-23T13:47:41.934Z,1.10
2023-09-23T13:50:08.382Z,0.95
2023-09-23T13:52:34.728Z,1.33
2023-09-23T13:55:01.599Z,1.40
2023-09-23T13:57:28.032Z,1.38
2023-09-23T13:59:54.548Z,1.63
2023-09-23T14:02:20.889Z,1.10
2023-09-23T14:04:47.508Z,1.30
2023-09-23T14:07:14.264Z,1.00
2023-09-23T14:09:40.639Z,1.15
2023-09-23T14:12:06.924Z,1.08
2023-09-23T14:14:33.746Z,1.35
2023-09-23T14:17:00.501Z,1.45
2023-09-23T14:19:26.992Z,1.30
2023-09-23T14:21:53.268Z,1.17
2023-09-23T14:24:19.670Z,1.58
2023-09-23T14:26:45.986Z,1.20
2023-09-23T14:29:12.677Z,1.02
2023-09-23T14:31:39.078Z,1.25
2023-09-23T14:34:05.487Z,1.65
2023-09-23T14:36:32.297Z,0.98
2023-09-23T14:38:59.094Z,3.17
2023-09-23T14:41:25.577Z,2.10
2023-09-23T14:43:52.290Z,1.17
2023-09-23T14:46:18.800Z,3.35
2023-09-23T14:48:45.449Z,2.78
2023-09-23T14:51:11.874Z,2.45
2023-09-23T14:53:38.401Z,1.63
2023-09-23T14:56:04.888Z,1.10
2023-09-23T14:58:31.412Z,1.30
2023-09-23T15:00:57.860Z,1.30
2023-09-23T15:03:24.457Z,1.30
2023-09-23T15:05:51.005Z,1.27
2023-09-23T15:08:17.652Z,1.45
2023-09-23T15:10:44.370Z,1.45
2023-09-23T15:13:11.044Z,1.40
2023-09-23T15:15:37.562Z,1.60
2023-09-23T15:18:04.263Z,1.73
2023-09-23T15:20:30.831Z,1.58
2023-09-23T15:22:57.305Z,0.93
2023-09-23T15:25:23.793Z,2.00
2023-09-23T15:27:50.470Z,1.35
2023-09-23T15:30:16.946Z,1.67
2023-09-23T15:32:43.601Z,1.05
2023-09-23T15:35:10.135Z,1.05
2023-09-23T15:37:36.840Z,1.27
2023-09-23T15:40:03.213Z,2.08
2023-09-23T15:42:29.739Z,2.50
2023-09-23T15:44:56.256Z,4.38
2023-09-23T15:47:22.827Z,1.67
2023-09-23T15:49:49.241Z,1.52
2023-09-23T15:52:15.660Z,1.40
2023-09-23T15:54:42.073Z,1.10
2023-09-23T15:57:08.427Z,1.80
2023-09-23T15:59:34.829Z,1.27
2023-09-23T16:02:01.328Z,1.08
2023-09-23T16:04:27.941Z,1.08
2023-09-23T16:06:54.537Z,1.02
2023-09-23T16:09:21.033Z,1.20
2023-09-23T16:11:47.561Z,1.10
2023-09-23T16:14:14.016Z,1.05
2023-09-23T16:16:40.653Z,1.15
2023-09-23T16:19:07.304Z,1.13
2023-09-23T16:21:33.684Z,0.82
2023-09-23T16:24:00.448Z,1.20
2023-09-23T16:26:26.977Z,0.90
2023-09-23T16:28:53.693Z,1.73
2023-09-23T16:31:20.500Z,1.17
2023-09-23T16:33:47.080Z,1.70
2023-09-23T16:36:13.488Z,1.10
2023-09-23T16:38:40.030Z,1.48
2023-09-23T16:41:06.532Z,1.00
2023-09-23T16:43:33.023Z,0.90
2023-09-23T16:45:59.490Z,1.38
2023-09-23T16:48:25.941Z,1.40
2023-09-23T16:50:52.623Z,1.17
2023-09-23T16:53:19.176Z,1.30
2023-09-23T16:55:45.624Z,1.42
2023-09-23T16:58:12.116Z,0.85
2023-09-23T17:00:38.480Z,1.38
2023-09-23T17:03:05.068Z,1.05
2023-09-23T17:05:31.527Z,1.20
2023-09-23T17:07:57.991Z,1.20
2023-09-23T17:10:24.391Z,1.30
2023-09-23T17:12:50.748Z,1.08
2023-09-23T17:15:17.252Z,0.90
2023-09-23T17:17:43.754Z,1.50
2023-09-23T17:20:10.410Z,1.10
2023-09-23T17:22:36.761Z,1.20
2023-09-23T17:25:03.692Z,1.40
2023-09-23T17:27:30.177Z,1.63
2023-09-23T17:29:56.601Z,1.23
2023-09-23T17:32:23.081Z,1.17
2023-09-23T17:34:49.485Z,1.45
2023-09-23T17:37:15.812Z,1.65
2023-09-23T17:39:42.162Z,1.95
2023-09-23T17:42:08.631Z,1.25
2023-09-23T17:44:37.464Z,2.13
2023-09-23T17:47:04.463Z,1.60
2023-09-23T17:49:31.168Z,1.52
2023-09-23T17:51:58.165Z,1.27
2023-09-23T17:54:24.852Z,1.52
2023-09-23T17:56:51.350Z,1.90
2023-09-23T17:59:18.643Z,2.15
2023-09-23T18:01:45.683Z,2.63
2023-09-23T18:04:12.614Z,2.22
2023-09-23T18:06:39.412Z,2.20
2023-09-23T18:09:06.300Z,3.40
2023-09-23T18:11:33.069Z,2.38
2023-09-23T18:13:59.952Z,2.30
2023-09-23T18:16:26.711Z,1.90
2023-09-23T18:18:53.570Z,2.03
2023-09-23T18:21:20.395Z,1.52
2023-09-23T18:23:47.646Z,1.77
2023-09-23T18:26:14.792Z,1.45
2023-09-23T18:28:41.518Z,1.58
2023-09-23T18:31:08.356Z,2.00
2023-09-23T18:33:35.288Z,2.13
2023-09-23T18:36:01.997Z,1.83
2023-09-23T18:38:28.771Z,2.15
2023-09-23T18:40:55.527Z,1.17
2023-09-23T18:43:22.358Z,2.08
2023-09-23T18:45:49.158Z,2.00
2023-09-23T18:48:25.865Z,2.33
2023-09-23T18:50:53.997Z,2.83
2023-09-23T18:53:20.988Z,2.00
2023-09-23T18:55:47.734Z,1.98
2023-09-23T18:58:14.521Z,1.65
2023-09-23T19:00:40.812Z,1.73
2023-09-23T19:03:07.339Z,1.27
2023-09-23T19:05:33.675Z,1.88
2023-09-23T19:07:59.963Z,2.42
2023-09-23T19:10:26.262Z,1.42
2023-09-23T19:12:52.526Z,1.83
2023-09-23T19:15:18.853Z,1.10
2023-09-23T19:17:45.245Z,1.20
2023-09-23T19:20:11.611Z,1.75
2023-09-23T19:22:37.927Z,1.30
2023-09-23T19:25:04.237Z,1.42
2023-09-23T19:27:30.533Z,1.20
2023-09-23T19:29:56.808Z,2.03
2023-09-23T19:32:23.210Z,1.55
2023-09-23T19:34:49.561Z,1.30
2023-09-23T19:37:15.821Z,1.60
2023-09-23T19:39:42.074Z,1.45
2023-09-23T19:42:08.331Z,1.30
2023-09-23T19:44:34.780Z,1.10
2023-09-23T19:47:01.286Z,1.20
2023-09-23T19:49:27.564Z,1.98
2023-09-23T19:51:53.970Z,1.23
2023-09-23T19:54:20.240Z,1.52
2023-09-23T19:56:46.575Z,1.10
2023-09-23T19:59:12.986Z,1.35
2023-09-23T20:01:39.285Z,1.02
2023-09-23T20:04:05.613Z,1.83
2023-09-23T20:06:31.950Z,1.30
2023-09-23T20:08:58.271Z,0.98
2023-09-23T20:11:24.572Z,1.10
2023-09-23T20:13:50.880Z,1.58
2023-09-23T20:16:17.274Z,1.75
2023-09-23T20:18:43.669Z,1.15
2023-09-23T20:21:09.999Z,1.40
2023-09-23T20:23:36.411Z,2.17
2023-09-23T20:26:02.809Z,1.33
2023-09-23T20:28:29.106Z,2.30
2023-09-23T20:30:55.468Z,2.03
2023-09-23T20:33:21.938Z,2.60
2023-09-23T20:35:48.367Z,2.15
2023-09-23T20:38:14.692Z,2.03
2023-09-23T20:40:41.030Z,2.20
2023-09-23T20:43:07.324Z,2.15
2023-09-23T20:45:33.598Z,2.30
2023-09-23T20:47:59.939Z,1.70
2023-09-23T20:50:26.334Z,2.10
2023-09-23T20:52:52.637Z,1.80
2023-09-23T20:55:18.883Z,2.15
2023-09-23T20:57:45.150Z,1.60
2023-09-23T21:00:11.572Z,2.10
2023-09-23T21:02:37.969Z,1.38
2023-09-23T21:05:04.288Z,1.88
2023-09-23T21:07:30.641Z,1.83
2023-09-23T21:09:56.938Z,1.85
2023-09-23T21:12:23.206Z,1.77
2023-09-23T21:14:49.616Z,1.80
2023-09-23T21:17:15.898Z,2.17
2023-09-23T21:19:42.234Z,1.73
2023-09-23T21:22:08.516Z,1.70
2023-09-23T21:24:34.821Z,2.00
2023-09-23T21:27:01.102Z,1.77
2023-09-23T21:29:27.401Z,1.98
2023-09-23T21:31:53.813Z,2.08
2023-09-23T21:34:20.153Z,2.63
2023-09-23T21:36:46.447Z,1.50
2023-09-23T21:39:12.699Z,1.75
2023-09-23T21:41:39.038Z,1.67
2023-09-23T21:44:05.391Z,1.90
2023-09-23T21:46:31.620Z,2.28
2023-09-23T21:48:57.906Z,2.75
2023-09-23T21:51:24.240Z,3.17
2023-09-23T21:53:50.636Z,2.42
2023-09-23T21:56:19.578Z,2.65
2023-09-23T21:58:53.108Z,2.33
2023-09-23T22:01:19.490Z,2.90
2023-09-23T22:03:45.849Z,2.28
2023-09-23T22:06:12.272Z,2.10
2023-09-23T22:08:38.618Z,3.10
2023-09-23T22:11:04.950Z,2.85
2023-09-23T22:13:31.230Z,2.00
2023-09-23T22:15:57.573Z,2.40
2023-09-23T22:18:24.055Z,1.90
2023-09-23T22:20:50.621Z,3.20
2023-09-23T22:23:16.952Z,2.60
2023-09-23T22:25:43.242Z,2.35
2023-09-23T22:28:09.501Z,2.25
2023-09-23T22:30:35.764Z,2.97
2023-09-23T22:33:02.198Z,2.10
2023-09-23T22:35:28.617Z,2.35
2023-09-23T22:37:54.903Z,2.63
2023-09-23T22:40:21.281Z,2.22
2023-09-23T22:42:47.562Z,2.35
2023-09-23T22:45:23.530Z,2.42
2023-09-23T22:47:58.621Z,2.70
2023-09-23T22:50:25.029Z,3.40
2023-09-23T22:52:51.399Z,2.72
2023-09-23T22:55:17.657Z,2.20
2023-09-23T22:57:43.966Z,2.25
2023-09-23T23:00:10.189Z,2.00
2023-09-23T23:02:36.540Z,2.08
2023-09-23T23:05:03.089Z,2.17
2023-09-23T23:07:29.478Z,1.98
2023-09-23T23:09:55.813Z,2.67
2023-09-23T23:12:22.092Z,2.30
2023-09-23T23:14:48.415Z,2.30
2023-09-23T23:17:14.685Z,2.70
2023-09-23T23:19:40.943Z,2.20
2023-09-23T23:22:07.222Z,2.78
2023-09-23T23:24:33.529Z,2.08
2023-09-23T23:26:59.829Z,3.33
2023-09-23T23:29:26.169Z,2.55
2023-09-23T23:31:53.655Z,2.40
2023-09-23T23:34:19.916Z,2.10
2023-09-23T23:36:46.209Z,2.10
2023-09-23T23:39:12.500Z,2.65
2023-09-23T23:41:38.783Z,1.90
2023-09-23T23:44:05.138Z,2.25
2023-09-23T23:46:31.490Z,2.40
2023-09-23T23:48:57.800Z,2.88
2023-09-23T23:51:24.039Z,2.70
2023-09-23T23:53:50.587Z,2.13
2023-09-23T23:56:17.151Z,2.47
2023-09-23T23:58:43.422Z,2.20
